Aviation Digital Data Service (ADDS)

Output produced by METARs form (0151 UTC 24 April 2019)
found at http://aviationweather.gov/metar/data/
 
METAR text: KAUN 240135Z AUTO 00000KT 10SM CLR 26/12 A2996 RMK A01
Conditions at: KAUN (AUBURN MUNI , CA, US) observed 0135 UTC 24 April 2019
Temperature: 26.0°C (79°F)
Dewpoint: 12.0°C (54°F) [RH = 42%]
Pressure (altimeter): 29.96 inches Hg (1014.6 mb)
Winds: calm
Visibility: 10 or more miles (16+ km)
Ceiling: at least 12,000 feet AGL
Clouds: sky clear below 12,000 feet AGL
Weather: automated observation with no human augmentation;
there may or may not be significant weather present at this time